Time;durP1;ratioP1;P1;durP2;ratioP2;P2;SDS_P1;SDS_P2;PMS_P1;PMS_P2;Temp;Humidity;BMP_temperature;BMP_pressure;BME280_temperature;BME280_humidity;BME280_pressure;Samples;Min_cycle;Max_cycle;Signal;HPM_P1;HPM_P2
2022/10/29 00:02:24;;;;;;;12.93;7.63;;;18.80;99.90;;;;;;5072303;28;20032;-80
2022/10/29 00:04:50;;;;;;;16.05;7.88;;;18.80;99.90;;;;;;5072173;28;20020;-80
2022/10/29 00:07:15;;;;;;;15.63;7.93;;;18.60;99.90;;;;;;5072205;28;20025;-80
2022/10/29 00:09:41;;;;;;;16.90;7.88;;;18.60;99.90;;;;;;5072881;28;20071;-80
2022/10/29 00:12:07;;;;;;;16.27;8.38;;;18.70;99.90;;;;;;5075919;28;20052;-80
2022/10/29 00:14:33;;;;;;;12.05;8.15;;;18.70;99.90;;;;;;5075909;28;20441;-81
2022/10/29 00:16:58;;;;;;;18.40;8.98;;;18.70;99.90;;;;;;5075724;28;20123;-80
2022/10/29 00:19:24;;;;;;;16.10;8.90;;;18.70;99.90;;;;;;5074727;28;20086;-80
2022/10/29 00:21:50;;;;;;;15.38;7.90;;;18.60;99.90;;;;;;5075856;28;20024;-80
2022/10/29 00:24:16;;;;;;;14.60;8.60;;;18.60;99.90;;;;;;5075270;28;20429;-80
2022/10/29 00:26:42;;;;;;;14.85;8.75;;;18.70;99.90;;;;;;5075822;28;20097;-80
2022/10/29 00:29:07;;;;;;;15.52;8.50;;;18.60;99.90;;;;;;5075487;28;20039;-80
2022/10/29 00:31:33;;;;;;;14.05;8.35;;;18.60;99.90;;;;;;5075545;28;20025;-80
2022/10/29 00:33:58;;;;;;;16.75;8.75;;;18.70;99.90;;;;;;5075208;28;20044;-80
2022/10/29 00:36:27;;;;;;;19.55;9.15;;;18.70;99.90;;;;;;5075329;28;20032;-80
2022/10/29 00:38:53;;;;;;;15.65;8.73;;;18.60;99.90;;;;;;5075237;28;20039;-80
2022/10/29 00:41:22;;;;;;;19.13;8.38;;;18.60;99.90;;;;;;5075434;28;20103;-81
2022/10/29 00:43:51;;;;;;;18.77;8.40;;;18.60;99.90;;;;;;5074096;28;20034;-80
2022/10/29 00:46:31;;;;;;;18.70;9.60;;;18.50;99.90;;;;;;5075467;28;20031;-80
2022/10/29 00:48:58;;;;;;;15.10;8.38;;;18.30;99.90;;;;;;5075249;28;20032;-80
2022/10/29 00:51:25;;;;;;;17.58;8.68;;;18.30;99.90;;;;;;5075321;28;20381;-80
2022/10/29 00:53:59;;;;;;;19.95;9.00;;;18.30;99.90;;;;;;5074893;28;20028;-80
2022/10/29 00:56:28;;;;;;;16.48;9.10;;;18.20;99.90;;;;;;5075086;28;20021;-81
2022/10/29 00:58:53;;;;;;;18.48;9.25;;;18.10;99.90;;;;;;5075108;28;20571;-80
2022/10/29 01:01:19;;;;;;;16.50;9.27;;;18.00;99.90;;;;;;5075025;28;20108;-80
2022/10/29 01:03:45;;;;;;;18.15;9.13;;;18.00;99.90;;;;;;5056963;28;20039;-80
2022/10/29 01:06:13;;;;;;;21.48;9.57;;;18.10;99.90;;;;;;5074715;28;20028;-80
2022/10/29 01:08:38;;;;;;;17.67;9.45;;;18.10;99.90;;;;;;5074962;28;20138;-80
2022/10/29 01:11:12;;;;;;;22.80;10.40;;;18.10;99.90;;;;;;5074884;28;20028;-80
2022/10/29 01:13:46;;;;;;;14.52;9.55;;;18.10;99.90;;;;;;5074788;28;20047;-80
2022/10/29 01:16:33;;;;;;;18.58;9.63;;;18.10;99.90;;;;;;5074879;28;20028;-80
2022/10/29 01:19:17;;;;;;;18.23;9.52;;;18.00;99.90;;;;;;5074731;28;20037;-80
2022/10/29 01:21:51;;;;;;;15.10;8.20;;;18.00;99.90;;;;;;5074224;28;20036;-80
2022/10/29 01:24:25;;;;;;;19.20;9.02;;;18.00;99.90;;;;;;5074523;28;20024;-80
2022/10/29 01:26:57;;;;;;;13.27;8.85;;;17.90;99.90;;;;;;5074670;28;20021;-80
2022/10/29 01:29:44;;;;;;;20.48;9.18;;;17.80;99.90;;;;;;5074609;28;20388;-80
2022/10/29 01:32:11;;;;;;;21.42;8.82;;;17.80;99.90;;;;;;5074376;28;20017;-79
2022/10/29 01:34:44;;;;;;;18.67;9.43;;;17.80;99.90;;;;;;5074177;28;20045;-80
2022/10/29 01:37:16;;;;;;;15.88;8.13;;;17.80;99.90;;;;;;5072684;28;20123;-80
2022/10/29 01:40:11;;;;;;;18.80;9.18;;;17.90;99.90;;;;;;5074445;28;20032;-80
2022/10/29 01:42:40;;;;;;;18.10;9.00;;;17.70;99.90;;;;;;5074321;28;20117;-80
2022/10/29 01:45:14;;;;;;;18.27;9.07;;;17.80;99.90;;;;;;5074345;28;20024;-80
2022/10/29 01:48:05;;;;;;;11.55;8.40;;;17.70;99.90;;;;;;5074304;28;20024;-80
2022/10/29 01:50:32;;;;;;;13.38;8.13;;;17.70;99.90;;;;;;5073790;28;20028;-80
2022/10/29 01:52:59;;;;;;;14.32;8.25;;;17.60;99.90;;;;;;5073967;28;20481;-80
2022/10/29 01:55:30;;;;;;;14.57;8.57;;;17.60;99.90;;;;;;5073998;28;20024;-80
2022/10/29 01:57:56;;;;;;;14.27;8.32;;;17.70;99.90;;;;;;5073825;28;20036;-80
2022/10/29 02:00:23;;;;;;;16.65;8.65;;;17.70;99.90;;;;;;5073971;28;20021;-80
2022/10/29 02:03:27;;;;;;;15.77;8.50;;;17.80;99.90;;;;;;5073811;28;20485;-80
2022/10/29 02:06:15;;;;;;;20.42;8.50;;;17.90;99.90;;;;;;4972585;28;20046;-80
2022/10/29 02:09:14;;;;;;;15.52;8.20;;;18.00;99.90;;;;;;4973086;28;20077;-80
2022/10/29 02:11:45;;;;;;;16.63;8.25;;;17.80;99.90;;;;;;4972940;28;20134;-80
2022/10/29 02:14:16;;;;;;;15.80;8.38;;;17.50;99.90;;;;;;4972784;28;20026;-80
2022/10/29 02:16:43;;;;;;;19.35;8.57;;;17.40;99.90;;;;;;4972785;28;20042;-80
2022/10/29 02:19:09;;;;;;;13.02;7.55;;;17.50;99.90;;;;;;4972389;28;20077;-80
2022/10/29 02:21:34;;;;;;;17.15;7.80;;;17.40;99.90;;;;;;4972702;28;20035;-80
2022/10/29 02:24:00;;;;;;;15.43;8.38;;;17.30;99.90;;;;;;4972634;28;20487;-80
2022/10/29 02:26:25;;;;;;;16.05;7.60;;;17.40;99.90;;;;;;4956396;28;20027;-80
2022/10/29 02:28:51;;;;;;;15.52;7.95;;;17.40;99.90;;;;;;4972663;28;20114;-80
2022/10/29 02:31:17;;;;;;;18.10;7.68;;;17.50;99.90;;;;;;4972388;28;20496;-80
2022/10/29 02:33:42;;;;;;;16.58;7.55;;;17.60;99.90;;;;;;4971287;28;20189;-79
2022/10/29 02:36:08;;;;;;;17.55;8.02;;;17.50;99.90;;;;;;4972694;28;20047;-80
2022/10/29 02:38:34;;;;;;;11.10;7.20;;;17.50;99.90;;;;;;4972312;28;20508;-80
2022/10/29 02:40:59;;;;;;;15.27;7.60;;;17.50;99.90;;;;;;4972405;28;20035;-80
2022/10/29 02:43:25;;;;;;;13.45;7.45;;;17.40;99.90;;;;;;5046373;28;20130;-80
2022/10/29 02:46:19;;;;;;;13.70;7.40;;;17.50;99.90;;;;;;5073050;28;20162;-80
2022/10/29 02:48:45;;;;;;;13.15;6.97;;;17.50;99.90;;;;;;5072579;28;20032;-80
2022/10/29 02:51:11;;;;;;;11.90;6.68;;;17.50;99.90;;;;;;5073037;28;20042;-80
2022/10/29 02:53:37;;;;;;;13.35;7.30;;;17.40;99.90;;;;;;5072977;28;20489;-80
2022/10/29 02:56:04;;;;;;;12.35;6.90;;;17.50;99.90;;;;;;5073020;28;20025;-80
2022/10/29 02:58:29;;;;;;;19.08;6.40;;;17.50;99.90;;;;;;5072778;28;20081;-80
2022/10/29 03:00:55;;;;;;;13.30;6.95;;;17.40;99.90;;;;;;5072853;28;20020;-80
2022/10/29 03:03:21;;;;;;;13.82;7.15;;;17.50;99.90;;;;;;5072738;28;20370;-80
2022/10/29 03:05:46;;;;;;;13.65;7.55;;;17.40;99.90;;;;;;5072816;28;20024;-80
2022/10/29 03:08:12;;;;;;;13.43;6.97;;;17.40;99.90;;;;;;5072820;28;20564;-80
2022/10/29 03:10:37;;;;;;;14.18;7.28;;;17.40;99.90;;;;;;5072758;28;20021;-80
2022/10/29 03:13:03;;;;;;;13.68;6.88;;;17.40;99.90;;;;;;5072623;28;20029;-80
2022/10/29 03:15:29;;;;;;;14.30;6.93;;;17.40;99.90;;;;;;5072669;28;20028;-80
2022/10/29 03:17:54;;;;;;;13.80;6.78;;;17.30;99.90;;;;;;5072211;28;20097;-80
2022/10/29 03:20:20;;;;;;;13.27;7.20;;;17.20;99.90;;;;;;5072593;28;20027;-80
2022/10/29 03:22:45;;;;;;;9.77;7.05;;;17.20;99.90;;;;;;5072564;28;20028;-80
2022/10/29 03:25:11;;;;;;;10.73;7.07;;;17.10;99.90;;;;;;5072416;28;20031;-80
2022/10/29 03:27:43;;;;;;;13.75;7.63;;;17.10;99.90;;;;;;5072781;28;20056;-80
2022/10/29 03:30:11;;;;;;;17.13;7.60;;;17.20;99.90;;;;;;5072622;28;20017;-80
2022/10/29 03:32:44;;;;;;;13.73;7.80;;;17.10;99.90;;;;;;5071943;28;20036;-80
2022/10/29 03:35:11;;;;;;;14.98;8.00;;;17.10;99.90;;;;;;5072249;28;20053;-80
2022/10/29 03:37:37;;;;;;;14.73;7.68;;;17.20;99.90;;;;;;5072335;28;20119;-80
2022/10/29 03:40:03;;;;;;;15.85;8.05;;;17.20;99.90;;;;;;5072419;28;20103;-80
2022/10/29 03:42:32;;;;;;;16.95;8.23;;;17.20;99.90;;;;;;5071136;28;20036;-80
2022/10/29 03:44:58;;;;;;;18.42;8.93;;;17.20;99.90;;;;;;5073778;28;20390;-80
2022/10/29 03:47:24;;;;;;;14.27;8.50;;;17.20;99.90;;;;;;5076024;28;20032;-80
2022/10/29 03:49:50;;;;;;;14.35;8.05;;;17.20;99.90;;;;;;5076306;28;20025;-79
2022/10/29 03:52:15;;;;;;;14.43;8.27;;;17.20;99.90;;;;;;5076360;28;20024;-80
2022/10/29 03:54:41;;;;;;;18.60;8.45;;;17.10;99.90;;;;;;5076354;28;20037;-80
2022/10/29 03:57:07;;;;;;;14.98;7.63;;;17.10;99.90;;;;;;5076220;28;20111;-80
2022/10/29 03:59:32;;;;;;;21.40;8.77;;;17.10;99.90;;;;;;5076257;28;20040;-80
2022/10/29 04:01:58;;;;;;;13.98;8.13;;;17.10;99.90;;;;;;5075817;28;20028;-80
2022/10/29 04:04:23;;;;;;;16.83;9.70;;;17.10;99.90;;;;;;5076060;28;20085;-80
2022/10/29 04:06:49;;;;;;;17.65;8.45;;;17.30;99.90;;;;;;5076173;28;20034;-80
2022/10/29 04:09:15;;;;;;;18.00;8.52;;;17.20;99.90;;;;;;5076073;28;20423;-80
2022/10/29 04:11:40;;;;;;;16.05;7.63;;;17.20;99.90;;;;;;5076037;28;20477;-79
2022/10/29 04:14:06;;;;;;;21.58;8.70;;;17.20;99.90;;;;;;5075828;28;20141;-80
2022/10/29 04:16:31;;;;;;;14.73;7.95;;;17.10;99.90;;;;;;5075541;28;20130;-80
2022/10/29 04:18:58;;;;;;;14.30;8.30;;;17.50;99.90;;;;;;5075788;28;20043;-80
2022/10/29 04:21:24;;;;;;;14.63;8.05;;;17.20;99.90;;;;;;5075810;28;20036;-80
2022/10/29 04:23:50;;;;;;;16.23;7.82;;;17.20;99.90;;;;;;5075671;28;20488;-80
2022/10/29 04:26:16;;;;;;;16.20;7.68;;;17.30;99.90;;;;;;5075590;28;20485;-80
2022/10/29 04:28:42;;;;;;;17.98;7.75;;;17.30;99.90;;;;;;5075851;28;20032;-79
2022/10/29 04:31:11;;;;;;;20.88;7.70;;;17.30;99.90;;;;;;5075101;28;20098;-80
2022/10/29 04:33:37;;;;;;;13.57;7.28;;;17.20;99.90;;;;;;5075185;28;20053;-80
2022/10/29 04:36:04;;;;;;;15.77;7.30;;;17.20;99.90;;;;;;5075627;28;20492;-80
2022/10/29 04:38:29;;;;;;;13.60;7.45;;;17.30;99.90;;;;;;5075345;28;20065;-80
2022/10/29 04:40:58;;;;;;;15.57;7.60;;;17.40;99.90;;;;;;5075453;28;20012;-80
2022/10/29 04:43:25;;;;;;;15.60;7.22;;;17.30;99.90;;;;;;5075471;28;20032;-80
2022/10/29 04:45:57;;;;;;;16.30;7.65;;;17.30;99.90;;;;;;5075074;28;20107;-80
2022/10/29 04:48:25;;;;;;;13.80;7.35;;;17.30;99.90;;;;;;5075342;28;20389;-80
2022/10/29 04:50:51;;;;;;;13.50;7.15;;;17.30;99.90;;;;;;5075204;28;20024;-80
2022/10/29 04:53:17;;;;;;;12.68;7.25;;;17.40;99.90;;;;;;5075298;28;20085;-80
2022/10/29 04:55:43;;;;;;;15.82;7.47;;;17.20;99.90;;;;;;5074609;28;20031;-80
2022/10/29 04:58:15;;;;;;;16.75;8.00;;;17.10;99.90;;;;;;5074734;28;20488;-79
2022/10/29 05:00:41;;;;;;;13.88;7.30;;;17.20;99.90;;;;;;5075244;28;20389;-80
2022/10/29 05:03:08;;;;;;;17.35;7.20;;;17.20;99.90;;;;;;5075045;28;20027;-80
2022/10/29 05:05:36;;;;;;;13.95;6.55;;;17.30;99.90;;;;;;5075063;28;20033;-80
2022/10/29 05:08:03;;;;;;;11.80;6.90;;;17.20;99.90;;;;;;5075063;28;20048;-80
2022/10/29 05:10:31;;;;;;;15.20;6.88;;;17.10;99.90;;;;;;5074953;28;20389;-80
2022/10/29 05:12:57;;;;;;;13.85;7.13;;;17.10;99.90;;;;;;5074557;28;20078;-80
2022/10/29 05:15:23;;;;;;;15.23;7.22;;;17.10;99.90;;;;;;5074787;28;20031;-80
2022/10/29 05:17:49;;;;;;;15.27;6.85;;;17.30;99.90;;;;;;5074742;28;20053;-80
2022/10/29 05:20:15;;;;;;;15.73;6.88;;;17.20;99.90;;;;;;5074707;28;20550;-80
2022/10/29 05:22:40;;;;;;;14.30;7.38;;;17.20;99.90;;;;;;5074759;28;20035;-80
2022/10/29 05:25:06;;;;;;;12.88;7.20;;;17.20;99.90;;;;;;5074582;28;20484;-80
2022/10/29 05:27:31;;;;;;;13.60;6.90;;;17.20;99.90;;;;;;5074239;28;20477;-80
2022/10/29 05:29:57;;;;;;;10.98;6.20;;;17.10;99.90;;;;;;5074534;28;20025;-80
2022/10/29 05:32:23;;;;;;;14.98;7.05;;;17.10;99.90;;;;;;5074345;28;20385;-80
2022/10/29 05:34:48;;;;;;;13.07;6.65;;;17.10;99.90;;;;;;5074227;28;20025;-80
2022/10/29 05:37:14;;;;;;;15.05;7.38;;;17.10;99.90;;;;;;5074330;28;20035;-80
2022/10/29 05:39:40;;;;;;;15.25;7.57;;;17.00;99.90;;;;;;5074155;28;20023;-80
2022/10/29 05:42:05;;;;;;;19.05;7.70;;;17.00;99.90;;;;;;5074078;28;20488;-80
2022/10/29 05:44:31;;;;;;;15.50;7.45;;;17.00;99.90;;;;;;5074322;28;20028;-80
2022/10/29 05:46:56;;;;;;;13.10;6.50;;;16.90;99.90;;;;;;5074138;28;20027;-80
2022/10/29 05:49:22;;;;;;;17.10;7.50;;;16.80;99.90;;;;;;5074261;28;20112;-80
2022/10/29 05:51:47;;;;;;;14.27;7.35;;;16.80;99.90;;;;;;5073930;28;20382;-80
2022/10/29 05:54:13;;;;;;;12.98;6.47;;;16.80;99.90;;;;;;5074056;28;20107;-80
2022/10/29 05:56:38;;;;;;;14.75;7.40;;;16.70;99.90;;;;;;5073618;28;20021;-80
2022/10/29 05:59:04;;;;;;;16.65;7.60;;;16.70;99.90;;;;;;5073834;28;20448;-79
2022/10/29 06:01:30;;;;;;;12.85;6.47;;;16.60;99.90;;;;;;5073936;28;20062;-80
2022/10/29 06:03:56;;;;;;;12.02;6.75;;;16.70;99.90;;;;;;5073673;28;20020;-80
2022/10/29 06:06:22;;;;;;;14.70;7.10;;;16.70;99.90;;;;;;5073631;28;20027;-80
2022/10/29 06:08:47;;;;;;;15.18;6.93;;;16.70;99.90;;;;;;5073064;28;20111;-80
2022/10/29 06:11:13;;;;;;;12.13;6.80;;;16.70;99.90;;;;;;5073379;28;20562;-80
2022/10/29 06:13:38;;;;;;;14.43;7.28;;;16.70;99.90;;;;;;5073582;28;20070;-79
2022/10/29 06:16:05;;;;;;;13.43;6.70;;;16.70;99.90;;;;;;5073612;28;20154;-80
2022/10/29 06:18:30;;;;;;;16.60;7.68;;;16.70;99.90;;;;;;5073533;28;20047;-80
2022/10/29 06:20:59;;;;;;;16.50;7.80;;;16.80;99.90;;;;;;5073361;28;20020;-80
2022/10/29 06:23:25;;;;;;;18.90;7.05;;;16.80;99.90;;;;;;5073551;28;20038;-80
2022/10/29 06:25:51;;;;;;;14.07;7.30;;;16.90;99.90;;;;;;5073149;28;20107;-80
2022/10/29 06:28:17;;;;;;;17.85;6.88;;;17.00;99.90;;;;;;5073272;28;20056;-80
2022/10/29 06:30:48;;;;;;;12.77;6.97;;;16.90;99.90;;;;;;5073446;28;20025;-80
2022/10/29 06:33:14;;;;;;;11.80;7.15;;;16.90;99.90;;;;;;5072970;28;20052;-80
2022/10/29 06:35:40;;;;;;;11.80;6.53;;;17.00;99.90;;;;;;5072982;28;20029;-80
2022/10/29 06:38:06;;;;;;;14.10;6.80;;;17.00;99.90;;;;;;5073161;28;20029;-80
2022/10/29 06:40:31;;;;;;;11.70;6.63;;;17.10;99.90;;;;;;5072788;28;20024;-80
2022/10/29 06:43:02;;;;;;;13.98;7.43;;;17.20;99.90;;;;;;5073083;28;20488;-80
2022/10/29 06:45:28;;;;;;;12.98;6.50;;;17.30;99.90;;;;;;5073010;28;20469;-80
2022/10/29 06:47:54;;;;;;;16.00;7.30;;;17.30;99.90;;;;;;5072998;28;20028;-80
2022/10/29 06:50:20;;;;;;;16.48;7.15;;;17.40;99.90;;;;;;5072958;28;20031;-80
2022/10/29 06:53:06;;;;;;;11.68;6.60;;;17.50;99.90;;;;;;5073018;28;20130;-79
2022/10/29 06:55:32;;;;;;;16.58;6.75;;;17.50;99.90;;;;;;5072672;28;20381;-80
2022/10/29 06:58:11;;;;;;;11.07;6.10;;;17.60;99.90;;;;;;5072898;28;20473;-80
2022/10/29 07:00:37;;;;;;;16.95;6.93;;;17.80;99.90;;;;;;5072865;28;20506;-80
2022/10/29 07:03:03;;;;;;;11.65;6.95;;;17.90;99.90;;;;;;5072880;28;20116;-80
2022/10/29 07:05:30;;;;;;;14.13;6.93;;;17.90;99.90;;;;;;5072860;28;20024;-80
2022/10/29 07:07:57;;;;;;;9.93;6.30;;;18.10;99.90;;;;;;5072815;28;20040;-80
2022/10/29 07:10:22;;;;;;;16.10;6.07;;;18.10;99.90;;;;;;5072388;28;20103;-80
2022/10/29 07:12:48;;;;;;;13.38;6.28;;;18.30;99.90;;;;;;5072653;28;20098;-80
2022/10/29 07:15:14;;;;;;;14.38;6.78;;;18.30;99.90;;;;;;5072627;28;20401;-80
2022/10/29 07:17:39;;;;;;;18.05;6.82;;;18.40;99.90;;;;;;5072527;28;20060;-80
2022/10/29 07:20:06;;;;;;;10.85;6.20;;;18.60;99.90;;;;;;5072513;28;20021;-80
2022/10/29 07:22:32;;;;;;;11.68;6.75;;;18.60;99.90;;;;;;5071298;28;20020;-80
2022/10/29 07:24:58;;;;;;;11.77;6.43;;;18.80;99.90;;;;;;5072226;28;20028;-80
2022/10/29 07:27:24;;;;;;;12.45;5.90;;;18.90;99.90;;;;;;5072607;28;20028;-80
2022/10/29 07:29:49;;;;;;;11.70;6.07;;;19.10;99.90;;;;;;5072538;28;20078;-80
2022/10/29 07:32:15;;;;;;;13.05;5.70;;;19.20;99.90;;;;;;5072210;28;20025;-80
2022/10/29 07:34:40;;;;;;;14.77;5.85;;;19.40;99.90;;;;;;5072250;28;20403;-80
2022/10/29 07:37:06;;;;;;;11.82;6.10;;;19.50;99.90;;;;;;5072336;28;20025;-80
2022/10/29 07:39:31;;;;;;;11.90;5.47;;;19.60;99.90;;;;;;5072035;28;20030;-80
2022/10/29 07:41:57;;;;;;;11.60;6.55;;;19.80;99.90;;;;;;5072405;28;20385;-80
2022/10/29 07:44:23;;;;;;;14.73;6.10;;;20.20;99.90;;;;;;5072368;28;20039;-80
2022/10/29 07:46:48;;;;;;;11.20;5.53;;;20.40;99.90;;;;;;5072464;28;20027;-80
2022/10/29 07:49:14;;;;;;;11.00;5.50;;;20.50;99.90;;;;;;5072318;28;20033;-80
2022/10/29 07:51:40;;;;;;;10.43;5.80;;;20.50;99.90;;;;;;5072060;28;20498;-80
2022/10/29 07:54:06;;;;;;;12.40;5.30;;;20.60;99.90;;;;;;5071965;28;20031;-80
2022/10/29 07:56:31;;;;;;;10.45;5.50;;;20.60;99.90;;;;;;5072265;28;20024;-80
2022/10/29 07:58:57;;;;;;;13.48;5.78;;;20.90;99.90;;;;;;5072140;28;20033;-80
2022/10/29 08:01:23;;;;;;;14.90;5.38;;;21.90;99.90;;;;;;5072342;28;20109;-80
2022/10/29 08:03:49;;;;;;;11.52;5.05;;;22.50;99.90;;;;;;5072046;28;20029;-80
2022/10/29 08:06:15;;;;;;;12.48;5.85;;;23.00;99.90;;;;;;5072168;28;20016;-80
2022/10/29 08:08:41;;;;;;;10.43;5.47;;;23.30;99.90;;;;;;5071764;28;20513;-80
2022/10/29 08:11:07;;;;;;;11.15;5.57;;;23.90;99.90;;;;;;5072138;28;20055;-80
2022/10/29 08:13:33;;;;;;;14.63;6.13;;;23.60;99.90;;;;;;5072181;28;20028;-80
2022/10/29 08:15:58;;;;;;;12.77;5.88;;;23.20;99.90;;;;;;5072051;28;20025;-80
2022/10/29 08:18:24;;;;;;;17.52;5.82;;;23.50;99.90;;;;;;5072031;28;20041;-80
2022/10/29 08:20:50;;;;;;;13.50;5.55;;;24.10;99.90;;;;;;5072254;28;20017;-81
2022/10/29 08:23:15;;;;;;;18.23;7.80;;;24.60;99.90;;;;;;5070372;28;20016;-80
2022/10/29 08:25:42;;;;;;;11.75;5.30;;;24.90;99.90;;;;;;5071927;28;20033;-80
2022/10/29 08:28:12;;;;;;;20.45;5.53;;;24.90;99.90;;;;;;5071887;28;20124;-80
2022/10/29 08:30:39;;;;;;;16.13;6.07;;;25.70;99.90;;;;;;5072864;28;20436;-80
2022/10/29 08:33:05;;;;;;;10.68;5.68;;;27.60;99.90;;;;;;5075162;28;20044;-80
2022/10/29 08:35:31;;;;;;;13.05;5.85;;;28.20;99.90;;;;;;5075732;28;20094;-80
2022/10/29 08:37:57;;;;;;;14.77;6.28;;;28.30;99.90;;;;;;5075154;28;20028;-80
2022/10/29 08:40:40;;;;;;;9.43;5.25;;;28.00;99.90;;;;;;5075421;28;20037;-80
2022/10/29 08:43:49;;;;;;;11.82;5.47;;;28.70;99.90;;;;;;5075336;28;20108;-80
2022/10/29 08:46:22;;;;;;;14.38;6.03;;;29.30;99.90;;;;;;4974451;28;20069;-81
2022/10/29 08:48:53;;;;;;;10.45;5.80;;;29.30;99.90;;;;;;4974338;28;20090;-81
2022/10/29 08:51:37;;;;;;;13.70;6.15;;;29.90;99.90;;;;;;4974050;28;20581;-81
2022/10/29 08:54:03;;;;;;;10.05;5.10;;;30.20;99.90;;;;;;4974329;28;20117;-81
2022/10/29 08:56:34;;;;;;;12.50;5.43;;;28.70;99.90;;;;;;4974308;28;20094;-80
2022/10/29 08:59:13;;;;;;;15.68;6.95;;;29.10;99.90;;;;;;4974122;28;20042;-80
2022/10/29 09:01:39;;;;;;;7.85;5.75;;;29.60;99.90;;;;;;4974200;28;20054;-80
2022/10/29 09:04:35;;;;;;;12.38;5.57;;;29.60;99.90;;;;;;4974099;28;20118;-81
2022/10/29 09:07:09;;;;;;;14.65;6.13;;;30.20;99.90;;;;;;4973761;28;20027;-81
2022/10/29 09:09:44;;;;;;;11.20;5.55;;;29.50;99.90;;;;;;4973974;28;20040;-80
2022/10/29 09:12:35;;;;;;;11.02;5.90;;;30.10;99.90;;;;;;4974082;28;20086;-81
2022/10/29 09:15:38;;;;;;;17.00;6.07;;;31.00;99.90;;;;;;4973798;28;20129;-81
2022/10/29 09:18:23;;;;;;;10.65;5.18;;;32.30;99.90;;;;;;4973822;28;20066;-81
2022/10/29 09:21:00;;;;;;;13.05;6.13;;;32.60;99.90;;;;;;4973711;28;20035;-80
2022/10/29 09:23:50;;;;;;;11.90;6.28;;;32.40;99.90;;;;;;5040055;28;20032;-81
2022/10/29 09:26:26;;;;;;;14.00;6.68;;;33.10;99.90;;;;;;5074570;28;20066;-80
2022/10/29 09:29:16;;;;;;;12.85;6.20;;;33.70;99.90;;;;;;5074670;28;20029;-81
2022/10/29 09:31:52;;;;;;;13.63;6.30;;;34.40;99.90;;;;;;5074470;28;20029;-81
2022/10/29 09:34:37;;;;;;;12.55;5.95;;;33.60;99.90;;;;;;5073704;28;20075;-81
2022/10/29 09:37:22;;;;;;;13.80;6.13;;;33.70;99.90;;;;;;5074447;28;20115;-81
2022/10/29 09:39:48;;;;;;;19.17;6.22;;;31.70;99.90;;;;;;5074243;28;20397;-81
2022/10/29 09:42:21;;;;;;;12.70;5.57;;;32.10;99.90;;;;;;5074320;28;20117;-81
2022/10/29 09:44:56;;;;;;;12.13;6.05;;;32.70;99.90;;;;;;5074289;28;20385;-81
2022/10/29 09:48:02;;;;;;;13.52;5.55;;;33.40;99.90;;;;;;5074302;28;20073;-81
2022/10/29 09:50:39;;;;;;;13.00;5.85;;;33.60;99.90;;;;;;4973011;28;20480;-81
2022/10/29 09:53:06;;;;;;;14.13;6.28;;;34.20;99.90;;;;;;4973153;28;20043;-81
2022/10/29 09:55:43;;;;;;;10.88;5.90;;;34.30;99.90;;;;;;4973328;28;20517;-81
2022/10/29 09:58:25;;;;;;;9.73;5.55;;;35.10;99.90;;;;;;4973213;28;20416;-81
2022/10/29 10:00:53;;;;;;;10.90;5.55;;;34.60;99.90;;;;;;4973086;28;20546;-81
2022/10/29 10:03:44;;;;;;;13.68;6.00;;;35.40;99.90;;;;;;4972529;28;20512;-81
2022/10/29 10:06:11;;;;;;;15.68;6.47;;;35.40;99.90;;;;;;4972954;28;20035;-80
2022/10/29 10:09:00;;;;;;;10.77;5.93;;;34.20;99.90;;;;;;4973038;28;20062;-81
2022/10/29 10:11:42;;;;;;;14.43;5.93;;;34.00;99.90;;;;;;4972895;28;20062;-81
2022/10/29 10:14:20;;;;;;;11.07;5.70;;;33.30;99.90;;;;;;4972952;28;20057;-80
2022/10/29 10:16:55;;;;;;;12.00;5.82;;;33.40;99.90;;;;;;4972725;28;20471;-81
2022/10/29 10:19:22;;;;;;;12.25;5.88;;;32.90;99.90;;;;;;4972381;28;20574;-81
2022/10/29 10:22:04;;;;;;;10.00;5.82;;;33.90;99.90;;;;;;4972755;28;20022;-81
2022/10/29 10:24:35;;;;;;;11.25;5.50;;;35.50;99.90;;;;;;5025172;28;20091;-80
2022/10/29 10:27:30;;;;;;;12.05;5.82;;;34.60;99.90;;;;;;5073425;28;20043;-81
2022/10/29 10:30:11;;;;;;;9.68;6.07;;;34.40;99.90;;;;;;5073349;28;20485;-81
2022/10/29 10:32:37;;;;;;;13.57;5.90;;;33.90;99.90;;;;;;5072675;28;20115;-81
2022/10/29 10:35:20;;;;;;;13.65;6.00;;;33.80;99.90;;;;;;5073086;28;20091;-81
2022/10/29 10:37:46;;;;;;;15.82;6.00;;;33.80;99.90;;;;;;5073139;28;20041;-81
2022/10/29 10:40:23;;;;;;;14.00;5.45;;;33.40;99.90;;;;;;5073151;28;20044;-81
2022/10/29 10:42:53;;;;;;;11.02;5.72;;;34.50;99.90;;;;;;5073179;28;20025;-81
2022/10/29 10:45:26;;;;;;;13.18;5.97;;;34.50;99.90;;;;;;5073210;28;20027;-81
2022/10/29 10:47:57;;;;;;;11.10;5.55;;;35.10;99.90;;;;;;5072672;28;20024;-81
2022/10/29 10:50:31;;;;;;;12.90;6.13;;;34.50;99.90;;;;;;5072904;28;20028;-81
2022/10/29 10:53:00;;;;;;;11.48;6.78;;;33.60;99.90;;;;;;5072445;28;20271;-81
2022/10/29 10:55:56;;;;;;;11.90;5.85;;;34.00;99.90;;;;;;5072986;28;20020;-81
2022/10/29 10:58:41;;;;;;;10.55;6.20;;;34.60;99.90;;;;;;5070979;28;20048;-80
2022/10/29 11:01:19;;;;;;;16.13;6.28;;;33.40;99.90;;;;;;5072516;28;20020;-81
2022/10/29 11:03:56;;;;;;;15.20;6.20;;;33.60;99.90;;;;;;5072742;28;20070;-81
2022/10/29 11:06:40;;;;;;;11.27;6.05;;;35.90;99.90;;;;;;5072806;28;20048;-81
2022/10/29 11:09:25;;;;;;;13.93;5.82;;;36.00;99.90;;;;;;5072789;28;20020;-81
2022/10/29 11:12:12;;;;;;;11.27;6.25;;;36.30;99.90;;;;;;5072745;28;20016;-81
2022/10/29 11:14:51;;;;;;;9.82;5.85;;;34.60;99.90;;;;;;5072618;28;20044;-81
2022/10/29 11:17:35;;;;;;;12.05;6.03;;;34.00;99.90;;;;;;5072251;28;20024;-81
2022/10/29 11:20:27;;;;;;;13.00;5.80;;;33.50;99.90;;;;;;5072731;28;20516;-81
2022/10/29 11:23:12;;;;;;;11.00;5.93;;;33.50;99.90;;;;;;5072711;28;20032;-81
2022/10/29 11:25:47;;;;;;;12.23;5.60;;;34.40;99.90;;;;;;5072631;28;20043;-81
2022/10/29 11:28:32;;;;;;;11.98;5.88;;;33.90;99.90;;;;;;5072591;28;20099;-81
2022/10/29 11:31:07;;;;;;;14.60;6.03;;;33.30;99.90;;;;;;5072137;28;20490;-81
2022/10/29 11:33:57;;;;;;;16.17;6.00;;;32.20;99.90;;;;;;5072312;28;20051;-81
2022/10/29 11:36:28;;;;;;;13.70;6.50;;;32.10;99.90;;;;;;5072508;28;20028;-81
2022/10/29 11:39:09;;;;;;;11.30;6.07;;;32.80;99.90;;;;;;5072388;28;20037;-81
2022/10/29 11:42:10;;;;;;;11.30;5.75;;;32.40;99.90;;;;;;5072430;28;20048;-80
2022/10/29 11:44:37;;;;;;;19.83;6.28;;;33.30;99.90;;;;;;5010154;28;20140;-81
2022/10/29 11:47:08;;;;;;;14.35;6.72;;;33.40;99.90;;;;;;5010302;28;20038;-81
2022/10/29 11:49:40;;;;;;;11.93;5.75;;;32.60;99.90;;;;;;5010474;28;20593;-81
2022/10/29 11:52:15;;;;;;;14.10;5.90;;;32.20;99.90;;;;;;5010354;28;20022;-81
2022/10/29 11:54:56;;;;;;;14.70;5.75;;;32.70;99.90;;;;;;5010446;28;20438;-81
2022/10/29 11:57:25;;;;;;;13.80;6.47;;;33.20;99.90;;;;;;5010434;28;20072;-81
2022/10/29 12:00:19;;;;;;;11.63;5.90;;;33.60;99.90;;;;;;5010045;28;20122;-81
2022/10/29 12:03:03;;;;;;;16.75;5.90;;;34.20;99.90;;;;;;5010257;28;20113;-81
2022/10/29 12:05:43;;;;;;;12.23;6.32;;;34.60;99.90;;;;;;5011080;28;20041;-81
2022/10/29 12:08:27;;;;;;;10.82;5.63;;;33.80;99.90;;;;;;5014351;28;20042;-81
2022/10/29 12:10:52;;;;;;;17.38;6.13;;;31.60;99.90;;;;;;5014178;28;20022;-81
2022/10/29 12:13:26;;;;;;;15.05;6.20;;;31.50;99.90;;;;;;5013806;28;20048;-80
2022/10/29 12:16:35;;;;;;;12.02;5.90;;;32.00;99.90;;;;;;5014016;28;20033;-81
2022/10/29 12:19:07;;;;;;;17.42;6.05;;;32.20;99.90;;;;;;4975298;28;20071;-80
2022/10/29 12:21:53;;;;;;;13.95;6.55;;;32.40;99.90;;;;;;5014046;28;20038;-81
2022/10/29 12:24:33;;;;;;;15.38;6.60;;;31.50;99.90;;;;;;5013842;28;20029;-81
2022/10/29 12:27:24;;;;;;;9.75;5.63;;;31.80;99.90;;;;;;5014001;28;20034;-81
2022/10/29 12:29:57;;;;;;;13.23;6.40;;;31.10;99.90;;;;;;5013476;28;20026;-80
2022/10/29 12:32:37;;;;;;;13.57;6.35;;;30.60;99.90;;;;;;5013379;28;20045;-81
2022/10/29 12:35:11;;;;;;;15.73;6.10;;;31.10;99.90;;;;;;5013458;28;20037;-81
2022/10/29 12:38:22;;;;;;;13.27;6.65;;;31.80;99.90;;;;;;5013698;28;20038;-80
2022/10/29 12:40:52;;;;;;;11.52;6.07;;;31.80;99.90;;;;;;5013513;28;20121;-81
2022/10/29 12:43:29;;;;;;;12.57;6.00;;;32.40;99.90;;;;;;5013217;28;20029;-81
2022/10/29 12:46:05;;;;;;;12.38;6.43;;;32.60;99.90;;;;;;5013587;28;20034;-81
2022/10/29 12:48:52;;;;;;;12.05;6.50;;;31.90;99.90;;;;;;5013450;28;20157;-80
2022/10/29 12:51:27;;;;;;;13.52;6.63;;;31.50;99.90;;;;;;5013625;28;20065;-81
2022/10/29 12:54:06;;;;;;;12.88;6.60;;;31.70;99.90;;;;;;5070178;28;20032;-81
2022/10/29 12:56:32;;;;;;;11.32;6.75;;;32.20;99.90;;;;;;5075303;28;20024;-80
2022/10/29 12:59:23;;;;;;;8.90;6.05;;;32.20;99.90;;;;;;5074790;28;20123;-80
2022/10/29 13:01:52;;;;;;;14.90;6.55;;;33.00;99.90;;;;;;5075205;28;20054;-81